sensor_id;sensor_type;location;lat;lon;timestamp;P1;durP1;ratioP1;P2;durP2;ratioP2
36253;SDS011;22291;52.250;21.228;2024-02-28T00:00:48;93.62;;;57.35;;
36253;SDS011;22291;52.250;21.228;2024-02-28T00:03:18;92.82;;;53.10;;
36253;SDS011;22291;52.250;21.228;2024-02-28T00:05:45;82.02;;;49.25;;
36253;SDS011;22291;52.250;21.228;2024-02-28T00:08:11;83.15;;;47.67;;
36253;SDS011;22291;52.250;21.228;2024-02-28T00:10:38;73.67;;;43.60;;
36253;SDS011;22291;52.250;21.228;2024-02-28T00:13:04;81.10;;;49.80;;
36253;SDS011;22291;52.250;21.228;2024-02-28T00:15:31;75.90;;;47.15;;
36253;SDS011;22291;52.250;21.228;2024-02-28T00:17:57;78.50;;;45.17;;
36253;SDS011;22291;52.250;21.228;2024-02-28T00:20:23;79.35;;;47.00;;
36253;SDS011;22291;52.250;21.228;2024-02-28T00:22:51;78.42;;;45.80;;
36253;SDS011;22291;52.250;21.228;2024-02-28T00:25:19;82.08;;;47.48;;
36253;SDS011;22291;52.250;21.228;2024-02-28T00:27:45;78.55;;;47.17;;
36253;SDS011;22291;52.250;21.228;2024-02-28T00:30:12;79.00;;;47.80;;
36253;SDS011;22291;52.250;21.228;2024-02-28T00:32:40;68.75;;;42.00;;
36253;SDS011;22291;52.250;21.228;2024-02-28T00:35:07;70.57;;;44.53;;
36253;SDS011;22291;52.250;21.228;2024-02-28T00:37:34;77.27;;;46.35;;
36253;SDS011;22291;52.250;21.228;2024-02-28T00:40:01;83.37;;;46.02;;
36253;SDS011;22291;52.250;21.228;2024-02-28T00:42:27;67.58;;;41.70;;
36253;SDS011;22291;52.250;21.228;2024-02-28T00:44:53;69.58;;;42.93;;
36253;SDS011;22291;52.250;21.228;2024-02-28T00:47:20;62.35;;;39.15;;
36253;SDS011;22291;52.250;21.228;2024-02-28T00:49:46;62.03;;;39.00;;
36253;SDS011;22291;52.250;21.228;2024-02-28T00:52:13;74.12;;;42.95;;
36253;SDS011;22291;52.250;21.228;2024-02-28T00:54:41;74.15;;;45.45;;
36253;SDS011;22291;52.250;21.228;2024-02-28T00:57:07;70.70;;;42.17;;
36253;SDS011;22291;52.250;21.228;2024-02-28T00:59:34;74.97;;;46.28;;
36253;SDS011;22291;52.250;21.228;2024-02-28T01:02:00;79.12;;;46.20;;
36253;SDS011;22291;52.250;21.228;2024-02-28T01:04:29;67.72;;;41.92;;
36253;SDS011;22291;52.250;21.228;2024-02-28T01:06:56;73.12;;;45.60;;
36253;SDS011;22291;52.250;21.228;2024-02-28T01:09:22;72.40;;;44.50;;
36253;SDS011;22291;52.250;21.228;2024-02-28T01:11:49;73.50;;;46.28;;
36253;SDS011;22291;52.250;21.228;2024-02-28T01:14:15;76.95;;;46.10;;
36253;SDS011;22291;52.250;21.228;2024-02-28T01:16:42;75.30;;;44.85;;
36253;SDS011;22291;52.250;21.228;2024-02-28T01:19:08;69.15;;;39.30;;
36253;SDS011;22291;52.250;21.228;2024-02-28T01:21:34;67.10;;;40.92;;
36253;SDS011;22291;52.250;21.228;2024-02-28T01:24:00;67.75;;;41.23;;
36253;SDS011;22291;52.250;21.228;2024-02-28T01:26:27;71.28;;;43.17;;
36253;SDS011;22291;52.250;21.228;2024-02-28T01:28:53;72.30;;;43.35;;
36253;SDS011;22291;52.250;21.228;2024-02-28T01:31:19;67.12;;;39.67;;
36253;SDS011;22291;52.250;21.228;2024-02-28T01:33:45;68.22;;;41.13;;
36253;SDS011;22291;52.250;21.228;2024-02-28T01:36:12;65.60;;;39.25;;
36253;SDS011;22291;52.250;21.228;2024-02-28T01:38:39;63.20;;;38.85;;
36253;SDS011;22291;52.250;21.228;2024-02-28T01:41:06;65.12;;;40.60;;
36253;SDS011;22291;52.250;21.228;2024-02-28T01:43:33;67.47;;;41.08;;
36253;SDS011;22291;52.250;21.228;2024-02-28T01:46:00;66.35;;;40.73;;
36253;SDS011;22291;52.250;21.228;2024-02-28T01:48:29;66.90;;;41.65;;
36253;SDS011;22291;52.250;21.228;2024-02-28T01:50:58;67.72;;;41.15;;
36253;SDS011;22291;52.250;21.228;2024-02-28T01:53:26;66.55;;;41.80;;
36253;SDS011;22291;52.250;21.228;2024-02-28T01:55:53;71.92;;;42.50;;
36253;SDS011;22291;52.250;21.228;2024-02-28T01:58:21;72.00;;;42.17;;
36253;SDS011;22291;52.250;21.228;2024-02-28T02:00:48;66.15;;;41.77;;
36253;SDS011;22291;52.250;21.228;2024-02-28T02:03:15;68.17;;;41.75;;
36253;SDS011;22291;52.250;21.228;2024-02-28T02:05:42;71.25;;;41.28;;
36253;SDS011;22291;52.250;21.228;2024-02-28T02:08:10;62.70;;;40.15;;
36253;SDS011;22291;52.250;21.228;2024-02-28T02:10:37;62.40;;;39.73;;
36253;SDS011;22291;52.250;21.228;2024-02-28T02:13:04;69.15;;;41.40;;
36253;SDS011;22291;52.250;21.228;2024-02-28T02:15:32;66.60;;;39.48;;
36253;SDS011;22291;52.250;21.228;2024-02-28T02:17:59;63.33;;;40.00;;
36253;SDS011;22291;52.250;21.228;2024-02-28T02:20:29;64.10;;;39.88;;
36253;SDS011;22291;52.250;21.228;2024-02-28T02:22:59;67.55;;;40.63;;
36253;SDS011;22291;52.250;21.228;2024-02-28T02:25:26;77.32;;;41.08;;
36253;SDS011;22291;52.250;21.228;2024-02-28T02:27:53;61.75;;;39.10;;
36253;SDS011;22291;52.250;21.228;2024-02-28T02:30:19;66.22;;;39.50;;
36253;SDS011;22291;52.250;21.228;2024-02-28T02:32:46;65.95;;;40.15;;
36253;SDS011;22291;52.250;21.228;2024-02-28T02:35:12;70.22;;;41.28;;
36253;SDS011;22291;52.250;21.228;2024-02-28T02:37:42;62.43;;;41.50;;
36253;SDS011;22291;52.250;21.228;2024-02-28T02:40:12;68.62;;;42.15;;
36253;SDS011;22291;52.250;21.228;2024-02-28T02:42:41;63.08;;;39.70;;
36253;SDS011;22291;52.250;21.228;2024-02-28T02:45:08;68.40;;;40.63;;
36253;SDS011;22291;52.250;21.228;2024-02-28T02:47:35;68.25;;;41.60;;
36253;SDS011;22291;52.250;21.228;2024-02-28T02:50:03;66.28;;;40.38;;
36253;SDS011;22291;52.250;21.228;2024-02-28T02:54:58;62.25;;;39.92;;
36253;SDS011;22291;52.250;21.228;2024-02-28T02:57:25;64.90;;;40.73;;
36253;SDS011;22291;52.250;21.228;2024-02-28T02:59:51;67.97;;;40.50;;
36253;SDS011;22291;52.250;21.228;2024-02-28T03:02:18;64.55;;;40.25;;
36253;SDS011;22291;52.250;21.228;2024-02-28T03:04:45;62.40;;;40.12;;
36253;SDS011;22291;52.250;21.228;2024-02-28T03:07:11;69.60;;;40.25;;
36253;SDS011;22291;52.250;21.228;2024-02-28T03:09:39;69.12;;;42.90;;
36253;SDS011;22291;52.250;21.228;2024-02-28T03:12:07;66.53;;;41.13;;
36253;SDS011;22291;52.250;21.228;2024-02-28T03:14:34;61.63;;;39.53;;
36253;SDS011;22291;52.250;21.228;2024-02-28T03:17:02;65.50;;;40.38;;
36253;SDS011;22291;52.250;21.228;2024-02-28T03:19:29;63.42;;;41.10;;
36253;SDS011;22291;52.250;21.228;2024-02-28T03:21:56;67.22;;;40.20;;
36253;SDS011;22291;52.250;21.228;2024-02-28T03:24:22;60.17;;;39.38;;
36253;SDS011;22291;52.250;21.228;2024-02-28T03:26:49;63.55;;;40.35;;
36253;SDS011;22291;52.250;21.228;2024-02-28T03:29:15;59.63;;;37.38;;
36253;SDS011;22291;52.250;21.228;2024-02-28T03:31:41;64.42;;;38.42;;
36253;SDS011;22291;52.250;21.228;2024-02-28T03:34:08;64.25;;;40.52;;
36253;SDS011;22291;52.250;21.228;2024-02-28T03:36:35;62.35;;;39.42;;
36253;SDS011;22291;52.250;21.228;2024-02-28T03:39:02;64.30;;;39.40;;
36253;SDS011;22291;52.250;21.228;2024-02-28T03:41:29;64.07;;;40.50;;
36253;SDS011;22291;52.250;21.228;2024-02-28T03:43:55;72.37;;;41.13;;
36253;SDS011;22291;52.250;21.228;2024-02-28T03:46:22;67.05;;;42.58;;
36253;SDS011;22291;52.250;21.228;2024-02-28T03:48:48;68.20;;;42.67;;
36253;SDS011;22291;52.250;21.228;2024-02-28T03:51:16;63.85;;;39.33;;
36253;SDS011;22291;52.250;21.228;2024-02-28T03:53:42;67.78;;;40.58;;
36253;SDS011;22291;52.250;21.228;2024-02-28T03:56:09;68.85;;;41.37;;
36253;SDS011;22291;52.250;21.228;2024-02-28T03:58:37;69.22;;;41.63;;
36253;SDS011;22291;52.250;21.228;2024-02-28T04:01:05;66.90;;;40.70;;
36253;SDS011;22291;52.250;21.228;2024-02-28T04:03:32;70.97;;;43.15;;
36253;SDS011;22291;52.250;21.228;2024-02-28T04:05:58;70.12;;;40.30;;
36253;SDS011;22291;52.250;21.228;2024-02-28T04:08:25;61.65;;;39.42;;
36253;SDS011;22291;52.250;21.228;2024-02-28T04:10:51;63.98;;;39.95;;
36253;SDS011;22291;52.250;21.228;2024-02-28T04:13:18;66.62;;;38.63;;
36253;SDS011;22291;52.250;21.228;2024-02-28T04:15:44;61.20;;;38.78;;
36253;SDS011;22291;52.250;21.228;2024-02-28T04:18:12;66.72;;;39.98;;
36253;SDS011;22291;52.250;21.228;2024-02-28T04:20:40;62.40;;;38.95;;
36253;SDS011;22291;52.250;21.228;2024-02-28T04:23:07;61.23;;;38.78;;
36253;SDS011;22291;52.250;21.228;2024-02-28T04:25:33;61.50;;;39.38;;
36253;SDS011;22291;52.250;21.228;2024-02-28T04:28:01;60.33;;;38.58;;
36253;SDS011;22291;52.250;21.228;2024-02-28T04:30:29;68.10;;;43.67;;
36253;SDS011;22291;52.250;21.228;2024-02-28T04:32:55;62.67;;;38.63;;
36253;SDS011;22291;52.250;21.228;2024-02-28T04:35:23;69.42;;;39.88;;
36253;SDS011;22291;52.250;21.228;2024-02-28T04:37:49;61.80;;;38.58;;
36253;SDS011;22291;52.250;21.228;2024-02-28T04:40:15;63.98;;;39.53;;
36253;SDS011;22291;52.250;21.228;2024-02-28T04:42:42;68.85;;;41.02;;
36253;SDS011;22291;52.250;21.228;2024-02-28T04:45:09;71.42;;;43.02;;
36253;SDS011;22291;52.250;21.228;2024-02-28T04:47:36;68.52;;;40.80;;
36253;SDS011;22291;52.250;21.228;2024-02-28T04:50:05;63.13;;;39.88;;
36253;SDS011;22291;52.250;21.228;2024-02-28T04:52:34;66.47;;;41.45;;
36253;SDS011;22291;52.250;21.228;2024-02-28T04:55:01;71.77;;;43.63;;
36253;SDS011;22291;52.250;21.228;2024-02-28T04:57:30;68.97;;;42.10;;
36253;SDS011;22291;52.250;21.228;2024-02-28T04:59:56;66.45;;;40.45;;
36253;SDS011;22291;52.250;21.228;2024-02-28T05:02:23;66.70;;;40.67;;
36253;SDS011;22291;52.250;21.228;2024-02-28T05:04:51;67.45;;;42.90;;
36253;SDS011;22291;52.250;21.228;2024-02-28T05:07:18;65.32;;;41.15;;
36253;SDS011;22291;52.250;21.228;2024-02-28T05:09:45;73.28;;;43.13;;
36253;SDS011;22291;52.250;21.228;2024-02-28T05:12:11;64.05;;;41.25;;
36253;SDS011;22291;52.250;21.228;2024-02-28T05:14:38;61.08;;;38.17;;
36253;SDS011;22291;52.250;21.228;2024-02-28T05:17:04;63.30;;;39.23;;
36253;SDS011;22291;52.250;21.228;2024-02-28T05:19:30;66.05;;;39.45;;
36253;SDS011;22291;52.250;21.228;2024-02-28T05:21:57;67.42;;;41.68;;
36253;SDS011;22291;52.250;21.228;2024-02-28T05:24:23;63.23;;;41.23;;
36253;SDS011;22291;52.250;21.228;2024-02-28T05:26:49;69.42;;;43.75;;
36253;SDS011;22291;52.250;21.228;2024-02-28T05:29:16;71.70;;;44.90;;
36253;SDS011;22291;52.250;21.228;2024-02-28T05:31:43;68.75;;;42.30;;
36253;SDS011;22291;52.250;21.228;2024-02-28T05:34:10;72.37;;;43.08;;
36253;SDS011;22291;52.250;21.228;2024-02-28T05:36:36;72.20;;;43.33;;
36253;SDS011;22291;52.250;21.228;2024-02-28T05:39:03;65.70;;;41.28;;
36253;SDS011;22291;52.250;21.228;2024-02-28T05:41:31;72.37;;;42.53;;
36253;SDS011;22291;52.250;21.228;2024-02-28T05:43:58;70.65;;;41.80;;
36253;SDS011;22291;52.250;21.228;2024-02-28T05:46:24;71.02;;;42.65;;
36253;SDS011;22291;52.250;21.228;2024-02-28T05:48:52;69.30;;;42.30;;
36253;SDS011;22291;52.250;21.228;2024-02-28T05:51:18;65.90;;;41.53;;
36253;SDS011;22291;52.250;21.228;2024-02-28T05:53:45;73.07;;;39.48;;
36253;SDS011;22291;52.250;21.228;2024-02-28T05:56:13;66.57;;;40.65;;
36253;SDS011;22291;52.250;21.228;2024-02-28T05:58:44;67.95;;;42.93;;
36253;SDS011;22291;52.250;21.228;2024-02-28T06:01:16;72.82;;;41.63;;
36253;SDS011;22291;52.250;21.228;2024-02-28T06:03:48;68.37;;;42.60;;
36253;SDS011;22291;52.250;21.228;2024-02-28T06:06:14;67.30;;;42.30;;
36253;SDS011;22291;52.250;21.228;2024-02-28T06:08:42;76.55;;;41.08;;
36253;SDS011;22291;52.250;21.228;2024-02-28T06:11:11;71.42;;;42.20;;
36253;SDS011;22291;52.250;21.228;2024-02-28T06:13:39;67.03;;;41.48;;
36253;SDS011;22291;52.250;21.228;2024-02-28T06:16:06;66.42;;;43.52;;
36253;SDS011;22291;52.250;21.228;2024-02-28T06:18:35;71.65;;;43.50;;
36253;SDS011;22291;52.250;21.228;2024-02-28T06:21:02;75.47;;;45.70;;
36253;SDS011;22291;52.250;21.228;2024-02-28T06:23:29;73.57;;;45.10;;
36253;SDS011;22291;52.250;21.228;2024-02-28T06:25:56;77.40;;;44.77;;
36253;SDS011;22291;52.250;21.228;2024-02-28T06:28:23;73.20;;;44.93;;
36253;SDS011;22291;52.250;21.228;2024-02-28T06:30:50;79.32;;;46.63;;
36253;SDS011;22291;52.250;21.228;2024-02-28T06:33:16;74.50;;;45.33;;
36253;SDS011;22291;52.250;21.228;2024-02-28T06:35:45;77.15;;;47.00;;
36253;SDS011;22291;52.250;21.228;2024-02-28T06:38:13;77.30;;;47.25;;
36253;SDS011;22291;52.250;21.228;2024-02-28T06:40:39;83.52;;;49.25;;
36253;SDS011;22291;52.250;21.228;2024-02-28T06:43:07;78.85;;;46.40;;
36253;SDS011;22291;52.250;21.228;2024-02-28T06:45:33;83.85;;;48.80;;
36253;SDS011;22291;52.250;21.228;2024-02-28T06:48:03;78.62;;;48.68;;
36253;SDS011;22291;52.250;21.228;2024-02-28T06:50:32;80.62;;;48.73;;
36253;SDS011;22291;52.250;21.228;2024-02-28T06:52:58;81.28;;;48.65;;
36253;SDS011;22291;52.250;21.228;2024-02-28T06:55:25;77.67;;;46.65;;
36253;SDS011;22291;52.250;21.228;2024-02-28T06:57:53;79.17;;;49.48;;
36253;SDS011;22291;52.250;21.228;2024-02-28T07:00:19;79.27;;;48.48;;
36253;SDS011;22291;52.250;21.228;2024-02-28T07:02:46;76.90;;;46.85;;
36253;SDS011;22291;52.250;21.228;2024-02-28T07:05:13;75.75;;;47.17;;
36253;SDS011;22291;52.250;21.228;2024-02-28T07:07:39;82.05;;;49.30;;
36253;SDS011;22291;52.250;21.228;2024-02-28T07:10:06;89.05;;;49.42;;
36253;SDS011;22291;52.250;21.228;2024-02-28T07:12:34;79.75;;;48.45;;
36253;SDS011;22291;52.250;21.228;2024-02-28T07:15:01;78.42;;;48.10;;
36253;SDS011;22291;52.250;21.228;2024-02-28T07:17:31;81.37;;;47.95;;
36253;SDS011;22291;52.250;21.228;2024-02-28T07:19:57;85.10;;;48.23;;
36253;SDS011;22291;52.250;21.228;2024-02-28T07:22:24;75.52;;;47.15;;
36253;SDS011;22291;52.250;21.228;2024-02-28T07:24:51;77.95;;;48.40;;
36253;SDS011;22291;52.250;21.228;2024-02-28T07:27:17;81.40;;;50.63;;
36253;SDS011;22291;52.250;21.228;2024-02-28T07:29:44;79.35;;;49.15;;
36253;SDS011;22291;52.250;21.228;2024-02-28T07:32:10;80.40;;;48.85;;
36253;SDS011;22291;52.250;21.228;2024-02-28T07:34:37;79.62;;;48.63;;
36253;SDS011;22291;52.250;21.228;2024-02-28T07:37:03;78.00;;;46.02;;
36253;SDS011;22291;52.250;21.228;2024-02-28T07:39:30;77.90;;;45.95;;
36253;SDS011;22291;52.250;21.228;2024-02-28T07:41:56;73.78;;;45.50;;
36253;SDS011;22291;52.250;21.228;2024-02-28T07:44:22;77.58;;;45.60;;
36253;SDS011;22291;52.250;21.228;2024-02-28T07:46:48;82.82;;;46.42;;
36253;SDS011;22291;52.250;21.228;2024-02-28T07:49:16;73.02;;;44.88;;
36253;SDS011;22291;52.250;21.228;2024-02-28T07:51:44;71.10;;;45.55;;
36253;SDS011;22291;52.250;21.228;2024-02-28T07:54:10;73.60;;;45.98;;
36253;SDS011;22291;52.250;21.228;2024-02-28T07:56:37;70.90;;;45.12;;
36253;SDS011;22291;52.250;21.228;2024-02-28T07:59:03;72.85;;;43.92;;
36253;SDS011;22291;52.250;21.228;2024-02-28T08:01:29;79.10;;;47.00;;
36253;SDS011;22291;52.250;21.228;2024-02-28T08:03:57;75.40;;;45.58;;
36253;SDS011;22291;52.250;21.228;2024-02-28T08:06:25;79.20;;;46.35;;
36253;SDS011;22291;52.250;21.228;2024-02-28T08:08:51;78.87;;;47.67;;
36253;SDS011;22291;52.250;21.228;2024-02-28T08:11:17;74.65;;;47.05;;
36253;SDS011;22291;52.250;21.228;2024-02-28T08:13:44;79.42;;;47.08;;
36253;SDS011;22291;52.250;21.228;2024-02-28T08:16:11;73.00;;;44.27;;
36253;SDS011;22291;52.250;21.228;2024-02-28T08:18:37;76.28;;;45.10;;
36253;SDS011;22291;52.250;21.228;2024-02-28T08:21:04;72.97;;;46.53;;
36253;SDS011;22291;52.250;21.228;2024-02-28T08:23:31;101.05;;;62.62;;
36253;SDS011;22291;52.250;21.228;2024-02-28T08:25:58;79.67;;;46.88;;
36253;SDS011;22291;52.250;21.228;2024-02-28T08:28:24;74.47;;;45.85;;
36253;SDS011;22291;52.250;21.228;2024-02-28T08:30:50;71.87;;;45.78;;
36253;SDS011;22291;52.250;21.228;2024-02-28T08:33:17;80.65;;;47.67;;
36253;SDS011;22291;52.250;21.228;2024-02-28T08:35:44;78.10;;;46.25;;
36253;SDS011;22291;52.250;21.228;2024-02-28T08:38:12;77.17;;;48.13;;
36253;SDS011;22291;52.250;21.228;2024-02-28T08:40:38;77.35;;;46.37;;
36253;SDS011;22291;52.250;21.228;2024-02-28T08:43:06;78.70;;;47.38;;
36253;SDS011;22291;52.250;21.228;2024-02-28T08:45:32;73.02;;;45.03;;
36253;SDS011;22291;52.250;21.228;2024-02-28T08:47:58;73.12;;;45.63;;
36253;SDS011;22291;52.250;21.228;2024-02-28T08:50:27;74.15;;;46.70;;
36253;SDS011;22291;52.250;21.228;2024-02-28T08:52:55;70.60;;;44.53;;
36253;SDS011;22291;52.250;21.228;2024-02-28T08:55:22;73.57;;;46.02;;
36253;SDS011;22291;52.250;21.228;2024-02-28T08:57:48;72.58;;;44.48;;
36253;SDS011;22291;52.250;21.228;2024-02-28T09:00:16;71.30;;;46.08;;
36253;SDS011;22291;52.250;21.228;2024-02-28T09:02:44;73.57;;;45.83;;
36253;SDS011;22291;52.250;21.228;2024-02-28T09:05:11;72.97;;;44.53;;
36253;SDS011;22291;52.250;21.228;2024-02-28T09:07:38;77.22;;;47.58;;
36253;SDS011;22291;52.250;21.228;2024-02-28T09:10:06;71.97;;;46.08;;
36253;SDS011;22291;52.250;21.228;2024-02-28T09:12:33;74.07;;;46.53;;
36253;SDS011;22291;52.250;21.228;2024-02-28T09:15:00;74.47;;;48.23;;
36253;SDS011;22291;52.250;21.228;2024-02-28T09:17:26;77.82;;;46.13;;
36253;SDS011;22291;52.250;21.228;2024-02-28T09:19:53;79.47;;;48.13;;
36253;SDS011;22291;52.250;21.228;2024-02-28T09:22:20;82.92;;;47.55;;
36253;SDS011;22291;52.250;21.228;2024-02-28T09:24:47;73.07;;;47.10;;
36253;SDS011;22291;52.250;21.228;2024-02-28T09:27:14;77.60;;;47.60;;
36253;SDS011;22291;52.250;21.228;2024-02-28T09:29:41;77.12;;;46.98;;
36253;SDS011;22291;52.250;21.228;2024-02-28T09:32:07;75.37;;;47.60;;
36253;SDS011;22291;52.250;21.228;2024-02-28T09:34:35;92.70;;;59.13;;
36253;SDS011;22291;52.250;21.228;2024-02-28T09:37:04;101.47;;;65.50;;
36253;SDS011;22291;52.250;21.228;2024-02-28T09:39:31;77.45;;;48.90;;
36253;SDS011;22291;52.250;21.228;2024-02-28T09:41:57;76.22;;;47.60;;
36253;SDS011;22291;52.250;21.228;2024-02-28T09:44:24;72.30;;;46.40;;
36253;SDS011;22291;52.250;21.228;2024-02-28T09:46:53;77.07;;;45.37;;
36253;SDS011;22291;52.250;21.228;2024-02-28T09:49:19;70.25;;;44.30;;
36253;SDS011;22291;52.250;21.228;2024-02-28T09:51:48;70.32;;;44.60;;
36253;SDS011;22291;52.250;21.228;2024-02-28T09:54:17;69.50;;;44.00;;
36253;SDS011;22291;52.250;21.228;2024-02-28T09:56:43;75.75;;;44.00;;
36253;SDS011;22291;52.250;21.228;2024-02-28T09:59:10;71.02;;;46.37;;
36253;SDS011;22291;52.250;21.228;2024-02-28T10:01:42;70.62;;;44.65;;
36253;SDS011;22291;52.250;21.228;2024-02-28T10:04:13;67.15;;;43.87;;
36253;SDS011;22291;52.250;21.228;2024-02-28T10:06:40;66.57;;;41.48;;
36253;SDS011;22291;52.250;21.228;2024-02-28T10:09:06;64.75;;;40.55;;
36253;SDS011;22291;52.250;21.228;2024-02-28T10:11:33;58.35;;;39.33;;
36253;SDS011;22291;52.250;21.228;2024-02-28T10:14:01;60.05;;;37.55;;
36253;SDS011;22291;52.250;21.228;2024-02-28T10:16:29;56.83;;;36.95;;
36253;SDS011;22291;52.250;21.228;2024-02-28T10:18:56;57.33;;;37.98;;
36253;SDS011;22291;52.250;21.228;2024-02-28T10:21:22;57.65;;;37.95;;
36253;SDS011;22291;52.250;21.228;2024-02-28T10:23:50;55.83;;;36.28;;
36253;SDS011;22291;52.250;21.228;2024-02-28T10:26:16;58.70;;;37.13;;
36253;SDS011;22291;52.250;21.228;2024-02-28T10:28:43;57.27;;;36.58;;
36253;SDS011;22291;52.250;21.228;2024-02-28T10:31:11;60.38;;;36.48;;
36253;SDS011;22291;52.250;21.228;2024-02-28T10:33:38;59.98;;;37.00;;
36253;SDS011;22291;52.250;21.228;2024-02-28T10:36:06;58.33;;;35.65;;
36253;SDS011;22291;52.250;21.228;2024-02-28T10:38:33;53.83;;;35.17;;
36253;SDS011;22291;52.250;21.228;2024-02-28T10:41:00;57.20;;;35.48;;
36253;SDS011;22291;52.250;21.228;2024-02-28T10:43:28;58.02;;;34.92;;
36253;SDS011;22291;52.250;21.228;2024-02-28T10:45:57;61.10;;;39.90;;
36253;SDS011;22291;52.250;21.228;2024-02-28T10:48:25;60.78;;;40.00;;
36253;SDS011;22291;52.250;21.228;2024-02-28T10:50:53;53.58;;;35.35;;
36253;SDS011;22291;52.250;21.228;2024-02-28T10:53:21;52.48;;;34.43;;
36253;SDS011;22291;52.250;21.228;2024-02-28T10:55:54;55.08;;;35.25;;
36253;SDS011;22291;52.250;21.228;2024-02-28T10:58:25;57.78;;;34.33;;
36253;SDS011;22291;52.250;21.228;2024-02-28T11:00:57;56.65;;;34.63;;
36253;SDS011;22291;52.250;21.228;2024-02-28T11:03:23;52.30;;;33.15;;
36253;SDS011;22291;52.250;21.228;2024-02-28T11:05:50;54.35;;;34.50;;
36253;SDS011;22291;52.250;21.228;2024-02-28T11:08:21;52.45;;;33.33;;
36253;SDS011;22291;52.250;21.228;2024-02-28T11:10:56;55.55;;;33.67;;
36253;SDS011;22291;52.250;21.228;2024-02-28T11:13:30;50.08;;;33.50;;
36253;SDS011;22291;52.250;21.228;2024-02-28T11:16:06;52.58;;;32.03;;
36253;SDS011;22291;52.250;21.228;2024-02-28T11:18:35;46.02;;;30.90;;
36253;SDS011;22291;52.250;21.228;2024-02-28T11:23:50;50.23;;;31.30;;
36253;SDS011;22291;52.250;21.228;2024-02-28T11:26:15;47.85;;;30.48;;
36253;SDS011;22291;52.250;21.228;2024-02-28T11:28:43;50.45;;;30.40;;
36253;SDS011;22291;52.250;21.228;2024-02-28T11:31:09;50.20;;;30.92;;
36253;SDS011;22291;52.250;21.228;2024-02-28T11:33:36;52.55;;;31.33;;
36253;SDS011;22291;52.250;21.228;2024-02-28T11:36:04;49.93;;;32.55;;
36253;SDS011;22291;52.250;21.228;2024-02-28T11:38:36;47.88;;;31.57;;
36253;SDS011;22291;52.250;21.228;2024-02-28T11:41:06;49.08;;;31.23;;
36253;SDS011;22291;52.250;21.228;2024-02-28T11:43:33;53.30;;;33.18;;
36253;SDS011;22291;52.250;21.228;2024-02-28T11:46:01;50.17;;;32.85;;
36253;SDS011;22291;52.250;21.228;2024-02-28T11:48:39;52.73;;;32.42;;
36253;SDS011;22291;52.250;21.228;2024-02-28T11:51:08;52.90;;;33.92;;
36253;SDS011;22291;52.250;21.228;2024-02-28T11:53:35;50.78;;;32.93;;
36253;SDS011;22291;52.250;21.228;2024-02-28T11:56:01;48.98;;;33.60;;
36253;SDS011;22291;52.250;21.228;2024-02-28T11:58:29;58.70;;;36.53;;
36253;SDS011;22291;52.250;21.228;2024-02-28T12:00:56;59.85;;;34.78;;
36253;SDS011;22291;52.250;21.228;2024-02-28T12:03:22;60.88;;;37.78;;
36253;SDS011;22291;52.250;21.228;2024-02-28T12:05:51;61.58;;;36.17;;
36253;SDS011;22291;52.250;21.228;2024-02-28T12:08:20;55.67;;;34.95;;
36253;SDS011;22291;52.250;21.228;2024-02-28T12:10:47;60.38;;;38.45;;
36253;SDS011;22291;52.250;21.228;2024-02-28T12:13:17;55.78;;;34.25;;
36253;SDS011;22291;52.250;21.228;2024-02-28T12:15:46;53.02;;;32.53;;
36253;SDS011;22291;52.250;21.228;2024-02-28T12:18:15;47.45;;;29.60;;
36253;SDS011;22291;52.250;21.228;2024-02-28T12:20:42;46.85;;;27.70;;
36253;SDS011;22291;52.250;21.228;2024-02-28T12:23:09;50.88;;;28.75;;
36253;SDS011;22291;52.250;21.228;2024-02-28T12:25:36;51.30;;;30.72;;
36253;SDS011;22291;52.250;21.228;2024-02-28T12:28:04;46.33;;;28.23;;
36253;SDS011;22291;52.250;21.228;2024-02-28T12:30:38;44.63;;;27.57;;
36253;SDS011;22291;52.250;21.228;2024-02-28T12:33:11;45.80;;;27.67;;
36253;SDS011;22291;52.250;21.228;2024-02-28T12:35:37;49.53;;;26.85;;
36253;SDS011;22291;52.250;21.228;2024-02-28T12:38:03;49.63;;;27.45;;
36253;SDS011;22291;52.250;21.228;2024-02-28T12:40:31;71.02;;;42.90;;
36253;SDS011;22291;52.250;21.228;2024-02-28T12:42:57;61.15;;;35.83;;
36253;SDS011;22291;52.250;21.228;2024-02-28T12:45:26;51.92;;;30.75;;
36253;SDS011;22291;52.250;21.228;2024-02-28T12:47:53;56.10;;;32.20;;
36253;SDS011;22291;52.250;21.228;2024-02-28T12:50:21;59.08;;;33.92;;
36253;SDS011;22291;52.250;21.228;2024-02-28T12:52:48;66.97;;;38.90;;
36253;SDS011;22291;52.250;21.228;2024-02-28T12:57:43;57.05;;;33.55;;
36253;SDS011;22291;52.250;21.228;2024-02-28T13:00:12;60.88;;;36.58;;
36253;SDS011;22291;52.250;21.228;2024-02-28T13:02:40;79.90;;;44.58;;
36253;SDS011;22291;52.250;21.228;2024-02-28T13:05:07;87.70;;;49.70;;
36253;SDS011;22291;52.250;21.228;2024-02-28T13:07:39;100.75;;;56.60;;
36253;SDS011;22291;52.250;21.228;2024-02-28T13:10:07;108.05;;;58.42;;
36253;SDS011;22291;52.250;21.228;2024-02-28T13:12:35;107.13;;;60.43;;
36253;SDS011;22291;52.250;21.228;2024-02-28T13:15:05;110.80;;;60.80;;
36253;SDS011;22291;52.250;21.228;2024-02-28T13:17:33;111.32;;;59.80;;
36253;SDS011;22291;52.250;21.228;2024-02-28T13:20:03;117.20;;;61.98;;
36253;SDS011;22291;52.250;21.228;2024-02-28T13:22:30;111.42;;;58.55;;
36253;SDS011;22291;52.250;21.228;2024-02-28T13:24:57;113.62;;;61.28;;
36253;SDS011;22291;52.250;21.228;2024-02-28T13:27:23;102.78;;;56.48;;
36253;SDS011;22291;52.250;21.228;2024-02-28T13:29:49;107.27;;;55.58;;
36253;SDS011;22291;52.250;21.228;2024-02-28T13:32:15;102.70;;;54.08;;
36253;SDS011;22291;52.250;21.228;2024-02-28T13:34:42;97.17;;;52.55;;
36253;SDS011;22291;52.250;21.228;2024-02-28T13:37:09;96.20;;;49.15;;
36253;SDS011;22291;52.250;21.228;2024-02-28T13:39:35;89.60;;;48.35;;
36253;SDS011;22291;52.250;21.228;2024-02-28T13:42:04;94.72;;;48.75;;
36253;SDS011;22291;52.250;21.228;2024-02-28T13:44:34;91.05;;;48.85;;
36253;SDS011;22291;52.250;21.228;2024-02-28T13:47:06;94.62;;;49.85;;
36253;SDS011;22291;52.250;21.228;2024-02-28T13:49:32;89.87;;;49.23;;
36253;SDS011;22291;52.250;21.228;2024-02-28T13:52:01;116.15;;;67.03;;
36253;SDS011;22291;52.250;21.228;2024-02-28T13:54:27;135.95;;;82.88;;
36253;SDS011;22291;52.250;21.228;2024-02-28T13:56:53;90.40;;;50.85;;
36253;SDS011;22291;52.250;21.228;2024-02-28T13:59:19;89.03;;;50.28;;
36253;SDS011;22291;52.250;21.228;2024-02-28T14:01:46;95.97;;;51.80;;
36253;SDS011;22291;52.250;21.228;2024-02-28T14:04:12;86.82;;;48.10;;
36253;SDS011;22291;52.250;21.228;2024-02-28T14:06:38;81.55;;;47.13;;
36253;SDS011;22291;52.250;21.228;2024-02-28T14:09:04;81.22;;;46.73;;
36253;SDS011;22291;52.250;21.228;2024-02-28T14:11:31;75.47;;;41.00;;
36253;SDS011;22291;52.250;21.228;2024-02-28T14:13:58;77.20;;;44.10;;
36253;SDS011;22291;52.250;21.228;2024-02-28T14:16:24;80.57;;;45.23;;